Time;durP1;ratioP1;P1;durP2;ratioP2;P2;SDS_P1;SDS_P2;PMS_P1;PMS_P2;Temp;Humidity;BMP_temperature;BMP_pressure;BME280_temperature;BME280_humidity;BME280_pressure;Samples;Min_cycle;Max_cycle;Signal;HPM_P1;HPM_P2
2022/03/10 00:02:10;;;;;;;21.53;13.57;;;1.60;99.90;;;;;;5102720;28;20051;-80
2022/03/10 00:04:37;;;;;;;20.50;13.53;;;1.60;99.90;;;;;;5111536;27;20315;-80
2022/03/10 00:07:04;;;;;;;25.67;14.77;;;1.50;99.90;;;;;;5084662;27;20296;-80
2022/03/10 00:09:34;;;;;;;23.43;13.50;;;1.50;99.90;;;;;;5085194;27;21163;-80
2022/03/10 00:12:00;;;;;;;26.27;15.00;;;1.50;99.90;;;;;;5087801;28;20298;-80
2022/03/10 00:14:26;;;;;;;21.83;14.10;;;1.50;99.90;;;;;;5116653;27;20402;-80
2022/03/10 00:16:52;;;;;;;23.30;14.80;;;1.40;99.90;;;;;;5092163;27;20309;-80
2022/03/10 00:19:18;;;;;;;22.17;13.67;;;1.50;99.90;;;;;;5093635;27;20047;-81
2022/03/10 00:21:44;;;;;;;22.70;13.87;;;1.50;99.90;;;;;;5118832;27;20051;-81
2022/03/10 00:24:10;;;;;;;22.67;13.93;;;1.50;99.90;;;;;;5076482;28;20317;-80
2022/03/10 00:26:39;;;;;;;23.30;13.83;;;1.50;99.90;;;;;;5086504;28;20315;-81
2022/03/10 00:29:05;;;;;;;21.30;13.20;;;1.50;99.90;;;;;;5094327;28;20816;-80
2022/03/10 00:31:31;;;;;;;23.37;13.63;;;1.50;99.90;;;;;;5075091;28;20309;-81
2022/03/10 00:33:57;;;;;;;19.57;13.13;;;1.50;99.90;;;;;;5102098;27;20302;-81
2022/03/10 00:36:23;;;;;;;21.53;14.57;;;1.50;99.90;;;;;;5081841;28;20282;-81
2022/03/10 00:38:49;;;;;;;24.77;14.27;;;1.50;99.90;;;;;;5063430;28;20058;-81
2022/03/10 00:41:15;;;;;;;22.13;14.67;;;1.50;99.90;;;;;;5074939;28;20059;-80
2022/03/10 00:43:41;;;;;;;23.77;14.47;;;1.40;99.90;;;;;;5082203;28;20318;-80
2022/03/10 00:46:07;;;;;;;23.37;14.73;;;1.40;99.90;;;;;;5079761;28;20051;-81
2022/03/10 00:48:33;;;;;;;22.33;13.57;;;1.40;99.90;;;;;;5077337;28;20039;-80
2022/03/10 00:50:58;;;;;;;24.20;14.10;;;1.50;99.90;;;;;;5115749;28;20213;-80
2022/03/10 00:53:24;;;;;;;21.97;13.53;;;1.40;99.90;;;;;;5084356;28;20331;-80
2022/03/10 00:55:50;;;;;;;22.23;14.40;;;1.40;99.90;;;;;;5131640;28;20031;-80
2022/03/10 00:58:16;;;;;;;22.17;13.63;;;1.40;99.90;;;;;;5085316;28;20043;-80
2022/03/10 01:00:42;;;;;;;25.03;15.03;;;1.40;99.90;;;;;;5095321;28;20826;-80
2022/03/10 01:03:08;;;;;;;24.50;13.80;;;1.30;99.90;;;;;;5082720;28;20078;-80
2022/03/10 01:05:34;;;;;;;23.27;13.93;;;1.30;99.90;;;;;;5116273;28;20039;-80
2022/03/10 01:08:00;;;;;;;22.50;14.70;;;1.20;99.90;;;;;;5096811;28;20047;-80
2022/03/10 01:10:26;;;;;;;24.70;13.60;;;1.20;99.90;;;;;;5106059;28;20280;-80
2022/03/10 01:12:52;;;;;;;21.60;13.77;;;1.20;99.90;;;;;;5111702;28;20297;-80
2022/03/10 01:15:24;;;;;;;26.87;13.57;;;1.20;99.90;;;;;;5116855;28;20035;-80
2022/03/10 01:17:50;;;;;;;24.63;15.15;;;1.10;99.90;;;;;;5115012;28;20295;-80
2022/03/10 01:20:17;;;;;;;24.47;14.47;;;1.10;99.90;;;;;;5080634;28;20135;-81
2022/03/10 01:22:43;;;;;;;22.20;13.90;;;1.20;99.90;;;;;;5115639;28;20429;-80
2022/03/10 01:25:10;;;;;;;22.60;14.40;;;1.10;99.90;;;;;;5097212;28;20315;-80
2022/03/10 01:27:36;;;;;;;25.17;14.97;;;1.10;99.90;;;;;;5085648;28;20159;-80
2022/03/10 01:30:03;;;;;;;25.87;15.13;;;1.10;99.90;;;;;;5111748;28;20311;-80
2022/03/10 01:32:29;;;;;;;26.23;15.27;;;1.00;99.90;;;;;;5087913;28;20304;-81
2022/03/10 01:34:55;;;;;;;22.97;14.23;;;1.10;99.90;;;;;;5098066;28;20289;-81
2022/03/10 01:37:21;;;;;;;22.07;14.53;;;1.10;99.90;;;;;;5086469;28;20055;-80
2022/03/10 01:39:47;;;;;;;24.83;15.00;;;1.20;99.90;;;;;;5088639;28;20407;-81
2022/03/10 01:42:13;;;;;;;24.30;14.50;;;1.20;99.90;;;;;;5095028;28;20039;-80
2022/03/10 01:44:39;;;;;;;24.17;13.67;;;1.30;99.90;;;;;;5089189;28;20318;-80
2022/03/10 01:47:05;;;;;;;26.30;14.83;;;1.30;99.90;;;;;;5105450;28;20324;-80
2022/03/10 01:49:33;;;;;;;22.63;14.33;;;1.20;99.90;;;;;;5096725;28;20460;-82
2022/03/10 01:51:59;;;;;;;26.03;15.83;;;1.20;99.90;;;;;;5090607;27;20285;-80
2022/03/10 01:54:25;;;;;;;28.00;14.73;;;1.20;99.90;;;;;;5121134;27;21110;-80
2022/03/10 01:56:51;;;;;;;25.33;15.50;;;1.20;99.90;;;;;;5121114;27;20301;-81
2022/03/10 01:59:19;;;;;;;23.97;14.23;;;1.30;99.90;;;;;;5120349;27;20043;-80
2022/03/10 02:01:45;;;;;;;22.23;14.40;;;1.30;99.90;;;;;;5138600;27;20303;-81
2022/03/10 02:04:11;;;;;;;28.87;14.93;;;1.30;99.90;;;;;;5103724;27;20305;-81
2022/03/10 02:06:37;;;;;;;25.07;15.33;;;1.30;99.90;;;;;;5097661;28;20337;-81
2022/03/10 02:11:48;;;;;;;28.33;15.10;;;1.30;99.90;;;;;;5134552;27;20047;-81
2022/03/10 02:19:43;;;;;;;25.87;14.87;;;1.30;99.90;;;;;;5128738;27;20394;-81
2022/03/10 02:22:11;;;;;;;22.43;14.53;;;1.30;99.90;;;;;;5109230;27;20292;-81
2022/03/10 02:24:37;;;;;;;25.17;15.03;;;1.20;99.90;;;;;;5103844;27;20360;-82
2022/03/10 02:27:20;;;;;;;25.50;14.47;;;1.30;99.90;;;;;;5110699;27;20296;-81
2022/03/10 02:29:50;;;;;;;;;;;1.30;99.90;;;;;;5116675;27;20317;-81
2022/03/10 02:32:16;;;;;;;22.70;14.70;;;1.30;99.90;;;;;;5102045;27;20353;-81
2022/03/10 02:34:43;;;;;;;24.30;15.00;;;1.30;99.90;;;;;;5113009;28;20320;-81
2022/03/10 02:37:10;;;;;;;23.37;14.70;;;1.30;99.90;;;;;;5127084;27;20348;-81
2022/03/10 02:39:36;;;;;;;22.27;14.50;;;1.30;99.90;;;;;;5097587;27;20302;-81
2022/03/10 02:42:03;;;;;;;24.43;14.97;;;1.20;99.90;;;;;;5092912;28;20296;-80
2022/03/10 02:44:29;;;;;;;24.70;14.93;;;1.20;99.90;;;;;;5113333;27;20317;-81
2022/03/10 02:46:54;;;;;;;24.47;14.43;;;1.10;99.90;;;;;;5100969;27;20300;-80
2022/03/10 02:49:21;;;;;;;22.13;14.27;;;1.00;99.90;;;;;;5085449;27;20586;-81
2022/03/10 02:51:46;;;;;;;24.40;14.60;;;1.10;99.90;;;;;;5094943;28;20074;-81
2022/03/10 02:54:12;;;;;;;25.27;14.93;;;1.10;99.90;;;;;;5110322;27;20300;-81
2022/03/10 02:56:38;;;;;;;24.53;14.93;;;1.00;99.90;;;;;;5085063;27;20513;-81
2022/03/10 02:59:04;;;;;;;24.40;14.00;;;1.10;99.90;;;;;;5119170;27;20035;-81
2022/03/10 03:01:30;;;;;;;21.70;14.00;;;1.00;99.90;;;;;;5095503;28;20044;-81
2022/03/10 03:03:56;;;;;;;25.47;15.53;;;1.10;99.90;;;;;;5106340;28;20820;-82
2022/03/10 03:06:22;;;;;;;22.47;14.60;;;1.00;99.90;;;;;;5104981;27;20484;-81
2022/03/10 03:08:48;;;;;;;27.30;14.67;;;1.00;99.90;;;;;;5083601;27;20313;-81
2022/03/10 03:11:14;;;;;;;27.83;14.87;;;1.00;99.90;;;;;;5113453;28;20282;-81
2022/03/10 03:13:40;;;;;;;25.43;14.47;;;1.10;99.90;;;;;;5083508;28;20055;-81
2022/03/10 03:16:06;;;;;;;23.03;14.30;;;1.10;99.90;;;;;;5082033;28;20107;-81
2022/03/10 03:18:32;;;;;;;25.13;15.13;;;1.10;99.90;;;;;;5079314;27;20035;-81
2022/03/10 03:20:58;;;;;;;23.80;13.67;;;1.10;99.90;;;;;;5089186;28;20051;-81
2022/03/10 03:23:24;;;;;;;23.27;14.30;;;1.20;99.90;;;;;;5088040;28;20043;-81
2022/03/10 03:25:50;;;;;;;23.93;14.40;;;1.10;99.90;;;;;;5115719;27;20059;-81
2022/03/10 03:28:17;;;;;;;24.63;14.47;;;1.10;99.90;;;;;;5128611;27;20293;-82
2022/03/10 03:30:43;;;;;;;23.23;13.20;;;1.20;99.90;;;;;;5110067;27;20307;-81
2022/03/10 03:33:09;;;;;;;21.87;13.50;;;1.20;99.90;;;;;;5087402;28;20372;-81
2022/03/10 03:35:35;;;;;;;24.73;14.00;;;1.20;99.90;;;;;;5109298;28;20100;-80
2022/03/10 03:38:00;;;;;;;23.03;13.70;;;1.10;99.90;;;;;;5111286;28;20042;-81
2022/03/10 03:40:26;;;;;;;21.43;14.07;;;1.10;99.90;;;;;;5092539;27;20050;-81
2022/03/10 03:42:52;;;;;;;22.70;13.93;;;1.10;99.90;;;;;;5081429;28;20040;-80
2022/03/10 03:45:18;;;;;;;23.80;14.30;;;1.10;99.90;;;;;;5076062;27;20055;-81
2022/03/10 03:47:44;;;;;;;22.63;13.50;;;1.10;99.90;;;;;;5118721;27;20081;-80
2022/03/10 03:50:10;;;;;;;23.93;14.43;;;1.00;99.90;;;;;;5087398;28;20727;-81
2022/03/10 03:52:36;;;;;;;23.60;12.90;;;1.00;99.90;;;;;;5095322;27;20044;-81
2022/03/10 03:55:02;;;;;;;23.33;13.63;;;1.00;99.90;;;;;;5081926;27;20878;-80
2022/03/10 03:57:28;;;;;;;22.83;13.63;;;0.90;99.90;;;;;;5097997;28;20043;-80
2022/03/10 03:59:53;;;;;;;23.23;14.00;;;0.90;99.90;;;;;;5084343;28;20369;-80
2022/03/10 04:02:19;;;;;;;22.53;13.47;;;0.90;99.90;;;;;;5099146;27;20051;-79
2022/03/10 04:04:45;;;;;;;21.77;13.93;;;1.00;99.90;;;;;;5130063;27;20507;-81
2022/03/10 04:07:11;;;;;;;25.67;13.53;;;1.00;99.90;;;;;;5084286;27;20043;-81
2022/03/10 04:09:37;;;;;;;21.80;13.73;;;1.00;99.90;;;;;;5108414;27;20067;-80
2022/03/10 04:12:03;;;;;;;23.50;13.97;;;1.00;99.90;;;;;;5103050;27;20054;-80
2022/03/10 04:14:28;;;;;;;21.90;12.97;;;1.00;99.90;;;;;;5118430;27;20047;-80
2022/03/10 04:16:54;;;;;;;23.50;13.97;;;1.00;99.90;;;;;;5110186;28;20319;-80
2022/03/10 04:19:20;;;;;;;22.47;12.67;;;1.00;99.90;;;;;;5093195;28;20506;-81
2022/03/10 04:21:46;;;;;;;23.30;14.33;;;1.00;99.90;;;;;;5083585;27;20056;-81
2022/03/10 04:24:12;;;;;;;22.83;13.87;;;1.00;99.90;;;;;;5094472;28;20082;-81
2022/03/10 04:26:39;;;;;;;24.30;14.40;;;1.00;99.90;;;;;;5075698;27;21053;-82
2022/03/10 04:29:04;;;;;;;22.20;13.83;;;0.90;99.90;;;;;;5069438;28;20047;-81
2022/03/10 04:31:30;;;;;;;22.53;13.33;;;0.90;99.90;;;;;;5099849;27;20417;-80
2022/03/10 04:33:56;;;;;;;23.70;13.63;;;0.90;99.90;;;;;;5098426;28;20130;-80
2022/03/10 04:36:22;;;;;;;21.90;13.47;;;0.90;99.90;;;;;;5081268;28;20043;-81
2022/03/10 04:38:48;;;;;;;18.43;12.90;;;0.90;99.90;;;;;;5094152;28;20458;-80
2022/03/10 04:41:14;;;;;;;21.90;13.73;;;0.90;99.90;;;;;;5094446;28;20297;-81
2022/03/10 04:43:39;;;;;;;23.40;13.87;;;1.00;99.90;;;;;;5096929;28;20054;-80
2022/03/10 04:46:06;;;;;;;23.30;13.30;;;1.00;99.90;;;;;;5082385;27;20038;-80
2022/03/10 04:48:31;;;;;;;20.13;13.20;;;1.00;99.90;;;;;;5087023;27;20056;-80
2022/03/10 04:50:57;;;;;;;23.20;13.93;;;1.00;99.90;;;;;;5120100;27;20292;-80
2022/03/10 04:53:23;;;;;;;23.93;12.97;;;1.00;99.90;;;;;;5139165;27;20782;-80
2022/03/10 04:55:49;;;;;;;25.80;13.93;;;0.90;99.90;;;;;;5087561;27;20110;-80
2022/03/10 04:58:14;;;;;;;22.03;14.17;;;0.90;99.90;;;;;;5117240;27;20672;-80
2022/03/10 05:00:40;;;;;;;23.27;13.43;;;0.90;99.90;;;;;;5103994;27;20098;-80
2022/03/10 05:03:06;;;;;;;20.90;12.97;;;0.90;99.90;;;;;;5112541;27;20643;-80
2022/03/10 05:05:32;;;;;;;21.47;12.67;;;0.90;99.90;;;;;;5109933;27;20069;-80
2022/03/10 05:07:58;;;;;;;20.43;13.40;;;1.00;99.90;;;;;;5096412;27;20045;-80
2022/03/10 05:10:23;;;;;;;21.07;12.80;;;1.00;99.90;;;;;;5118809;27;20035;-81
2022/03/10 05:12:53;;;;;;;22.73;13.27;;;0.90;99.90;;;;;;5101054;27;20054;-81
2022/03/10 05:15:21;;;;;;;25.40;12.97;;;0.90;99.90;;;;;;5107929;28;20132;-80
2022/03/10 05:17:47;;;;;;;20.17;12.40;;;1.00;99.90;;;;;;5111682;27;20273;-81
2022/03/10 05:20:14;;;;;;;20.83;12.43;;;1.00;99.90;;;;;;5112617;27;20288;-80
2022/03/10 05:22:48;;;;;;;22.87;13.30;;;1.00;99.90;;;;;;5104805;27;20814;-80
2022/03/10 05:25:15;;;;;;;25.17;13.73;;;1.00;99.90;;;;;;5116986;27;20894;-81
2022/03/10 05:27:42;;;;;;;22.53;13.57;;;1.00;99.90;;;;;;5099065;27;20295;-80
2022/03/10 05:30:09;;;;;;;24.93;13.40;;;1.00;99.90;;;;;;5120285;27;20289;-81
2022/03/10 05:32:35;;;;;;;22.40;13.03;;;1.00;99.90;;;;;;5108275;27;20296;-80
2022/03/10 05:35:02;;;;;;;20.10;12.67;;;0.90;99.90;;;;;;5125103;27;20460;-81
2022/03/10 05:37:28;;;;;;;22.03;13.63;;;1.00;99.90;;;;;;5096546;27;20433;-81
2022/03/10 05:39:54;;;;;;;19.87;13.33;;;0.90;99.90;;;;;;5124604;27;20360;-81
2022/03/10 05:42:20;;;;;;;21.80;14.00;;;0.90;99.90;;;;;;5118988;27;20304;-81
2022/03/10 05:44:46;;;;;;;24.43;14.17;;;0.80;99.90;;;;;;5130929;27;20081;-81
2022/03/10 05:47:12;;;;;;;20.17;13.07;;;0.80;99.90;;;;;;5082926;27;20046;-80
2022/03/10 05:49:37;;;;;;;20.67;12.83;;;0.80;99.90;;;;;;5071267;27;20043;-80
2022/03/10 05:52:04;;;;;;;22.63;13.53;;;0.70;99.90;;;;;;5140348;27;20039;-81
2022/03/10 05:54:30;;;;;;;22.33;13.03;;;0.70;99.90;;;;;;5105967;27;20578;-81
2022/03/10 05:56:55;;;;;;;24.17;13.60;;;0.60;99.90;;;;;;5117872;27;20308;-81
2022/03/10 05:59:21;;;;;;;23.60;13.30;;;0.60;99.90;;;;;;5099981;27;20050;-81
2022/03/10 06:01:47;;;;;;;24.27;14.00;;;0.60;99.90;;;;;;5078867;27;20043;-81
2022/03/10 06:04:12;;;;;;;24.27;13.30;;;0.60;99.90;;;;;;5105808;27;20038;-80
2022/03/10 06:06:38;;;;;;;24.17;14.43;;;0.50;99.90;;;;;;5086907;27;20054;-80
2022/03/10 06:09:04;;;;;;;22.53;13.63;;;0.50;99.90;;;;;;5098248;27;20121;-80
2022/03/10 06:11:30;;;;;;;22.47;13.60;;;0.50;99.90;;;;;;5119075;27;20043;-80
2022/03/10 06:13:56;;;;;;;24.03;14.30;;;0.50;99.90;;;;;;5087641;27;20039;-80
2022/03/10 06:16:21;;;;;;;24.83;14.77;;;0.50;99.90;;;;;;5101915;27;20042;-80
2022/03/10 06:18:47;;;;;;;23.40;14.03;;;0.50;99.90;;;;;;5104079;27;20043;-81
2022/03/10 06:21:13;;;;;;;24.53;13.70;;;0.60;99.90;;;;;;5102643;27;20780;-79
2022/03/10 06:23:39;;;;;;;22.97;14.57;;;0.60;99.90;;;;;;5107388;27;20050;-89
2022/03/10 06:26:04;;;;;;;23.20;13.77;;;0.70;99.90;;;;;;5103962;27;20054;-84
2022/03/10 06:28:31;;;;;;;26.37;14.43;;;0.60;99.90;;;;;;5119244;27;20077;-82
2022/03/10 06:30:57;;;;;;;22.67;13.30;;;0.70;99.90;;;;;;5080917;27;20043;-84
2022/03/10 06:33:23;;;;;;;23.17;14.43;;;0.70;99.90;;;;;;5087040;27;20307;-80
2022/03/10 06:35:48;;;;;;;20.87;13.50;;;0.80;99.90;;;;;;5114342;27;20293;-83
2022/03/10 06:38:14;;;;;;;25.13;13.80;;;0.80;99.90;;;;;;5118810;27;20039;-81
2022/03/10 06:40:40;;;;;;;24.00;14.07;;;0.90;99.90;;;;;;5094477;27;20035;-82
2022/03/10 06:43:06;;;;;;;25.17;13.80;;;0.90;99.90;;;;;;5105129;27;20062;-80
2022/03/10 06:45:32;;;;;;;23.73;14.30;;;1.00;99.90;;;;;;5101794;27;20056;-81
2022/03/10 06:47:58;;;;;;;23.87;14.30;;;1.10;99.90;;;;;;5085856;27;20485;-80
2022/03/10 06:50:24;;;;;;;23.83;14.33;;;1.10;99.90;;;;;;5098297;27;20069;-80
2022/03/10 06:52:52;;;;;;;24.60;14.50;;;1.20;99.90;;;;;;5097569;27;20287;-80
2022/03/10 06:55:19;;;;;;;24.33;15.03;;;1.20;99.90;;;;;;5118867;27;20288;-80
2022/03/10 06:57:46;;;;;;;28.40;14.07;;;1.30;99.90;;;;;;5101757;27;20316;-80
2022/03/10 07:00:12;;;;;;;27.13;14.43;;;1.40;99.90;;;;;;5119700;27;20304;-79
2022/03/10 07:02:38;;;;;;;25.00;14.47;;;1.50;99.90;;;;;;5083430;27;20324;-80
2022/03/10 07:05:04;;;;;;;24.13;14.83;;;1.60;99.90;;;;;;5080903;27;20303;-81
2022/03/10 07:07:30;;;;;;;22.20;13.63;;;1.70;99.90;;;;;;5094986;27;20042;-82
2022/03/10 07:09:56;;;;;;;24.57;13.27;;;1.80;99.90;;;;;;5081267;27;21037;-81
2022/03/10 07:12:21;;;;;;;25.13;14.30;;;1.80;99.90;;;;;;5102943;27;20050;-81
2022/03/10 07:14:47;;;;;;;25.57;13.50;;;1.90;99.90;;;;;;5122094;27;20078;-81
2022/03/10 07:17:13;;;;;;;27.80;14.20;;;2.10;99.90;;;;;;5088312;27;20102;-81
2022/03/10 07:19:38;;;;;;;22.50;12.73;;;2.20;99.90;;;;;;5092443;27;20057;-80
2022/03/10 07:22:05;;;;;;;22.37;13.77;;;2.30;99.90;;;;;;5083981;27;20272;-81
2022/03/10 07:24:31;;;;;;;22.97;13.23;;;2.40;99.90;;;;;;5082027;27;20051;-81
2022/03/10 07:26:57;;;;;;;22.37;13.70;;;2.40;99.90;;;;;;5101366;27;20309;-81
2022/03/10 07:29:22;;;;;;;25.20;14.73;;;2.50;99.90;;;;;;5096333;27;20404;-80
2022/03/10 07:31:48;;;;;;;23.57;14.10;;;2.60;99.90;;;;;;5088112;27;20050;-81
2022/03/10 07:34:14;;;;;;;24.53;14.13;;;2.70;99.90;;;;;;5084745;27;20535;-80
2022/03/10 07:36:42;;;;;;;22.40;13.33;;;2.80;99.90;;;;;;5099107;27;20046;-81
2022/03/10 07:39:08;;;;;;;23.70;14.27;;;2.80;99.90;;;;;;5110770;27;20043;-81
2022/03/10 07:41:33;;;;;;;21.47;13.20;;;2.90;99.90;;;;;;5105600;27;20345;-81
2022/03/10 07:43:59;;;;;;;24.80;14.73;;;2.90;99.90;;;;;;5100554;27;20069;-81
2022/03/10 07:46:25;;;;;;;24.03;14.23;;;3.00;99.90;;;;;;5102535;27;20054;-80
2022/03/10 07:48:51;;;;;;;22.80;13.27;;;3.00;99.90;;;;;;5107891;27;20640;-81
2022/03/10 07:51:18;;;;;;;26.33;14.90;;;3.10;99.90;;;;;;5111356;27;20047;-81
2022/03/10 07:53:44;;;;;;;23.03;14.60;;;3.20;99.90;;;;;;5101181;27;20292;-81
2022/03/10 07:56:10;;;;;;;25.27;14.07;;;3.30;99.90;;;;;;5098290;27;20322;-81
2022/03/10 07:58:36;;;;;;;22.00;14.50;;;3.40;99.90;;;;;;5086917;27;20269;-81
2022/03/10 08:01:01;;;;;;;23.53;14.43;;;3.50;99.90;;;;;;5086806;27;20490;-82
2022/03/10 08:03:27;;;;;;;21.97;13.20;;;3.50;99.90;;;;;;5078829;27;20035;-83
2022/03/10 08:05:54;;;;;;;24.60;13.60;;;3.60;99.90;;;;;;5127526;27;20066;-83
2022/03/10 08:08:20;;;;;;;23.57;13.87;;;3.80;99.90;;;;;;5087991;27;20051;-83
2022/03/10 08:10:46;;;;;;;21.90;13.80;;;3.80;99.90;;;;;;5094549;27;20360;-83
2022/03/10 08:13:11;;;;;;;23.70;14.60;;;3.90;99.90;;;;;;5099814;27;20127;-83
2022/03/10 08:15:37;;;;;;;24.67;14.03;;;4.00;99.90;;;;;;5123494;27;20070;-83
2022/03/10 08:18:03;;;;;;;19.83;13.60;;;4.10;99.90;;;;;;5084866;27;20054;-83
2022/03/10 08:20:29;;;;;;;25.37;14.70;;;4.20;99.90;;;;;;5072891;27;20617;-83
2022/03/10 08:22:56;;;;;;;24.93;14.13;;;4.30;99.90;;;;;;5113996;27;20077;-83
2022/03/10 08:25:21;;;;;;;23.40;13.97;;;4.50;99.90;;;;;;5111860;27;20054;-83
2022/03/10 08:27:50;;;;;;;23.63;14.00;;;4.60;99.90;;;;;;5083883;27;20130;-81
2022/03/10 08:30:16;;;;;;;24.07;14.37;;;4.70;99.90;;;;;;5108953;27;20130;-83
2022/03/10 08:32:46;;;;;;;22.83;14.27;;;4.80;99.90;;;;;;5101867;27;20038;-82
2022/03/10 08:35:12;;;;;;;24.83;14.40;;;4.90;99.90;;;;;;5111166;27;20498;-83
2022/03/10 08:37:39;;;;;;;23.00;14.13;;;5.00;99.90;;;;;;5132805;27;20059;-82
2022/03/10 08:40:05;;;;;;;23.60;13.97;;;5.00;99.90;;;;;;5135955;27;20143;-83
2022/03/10 08:42:31;;;;;;;23.83;14.63;;;5.10;99.90;;;;;;5137577;27;20037;-83
2022/03/10 08:44:57;;;;;;;26.17;14.87;;;5.20;99.90;;;;;;5088731;28;20052;-83
2022/03/10 08:47:23;;;;;;;23.30;13.83;;;5.30;99.90;;;;;;5079661;28;20095;-83
2022/03/10 08:49:49;;;;;;;21.50;13.50;;;5.30;99.90;;;;;;5082995;28;20075;-83
2022/03/10 08:52:15;;;;;;;22.60;13.80;;;5.40;99.90;;;;;;5106479;28;20036;-83
2022/03/10 08:54:40;;;;;;;25.40;13.83;;;5.50;99.90;;;;;;5091762;28;20046;-83
2022/03/10 08:57:06;;;;;;;23.40;13.90;;;5.50;99.90;;;;;;5067986;28;20479;-82
2022/03/10 08:59:32;;;;;;;22.23;13.53;;;5.60;99.90;;;;;;5077864;28;20109;-83
2022/03/10 09:01:57;;;;;;;22.37;13.13;;;5.60;99.90;;;;;;5082499;28;20067;-83
2022/03/10 09:04:23;;;;;;;24.10;13.30;;;5.70;99.90;;;;;;5073668;28;20047;-82
2022/03/10 09:06:49;;;;;;;22.73;13.90;;;5.80;99.90;;;;;;5092466;27;20091;-84
2022/03/10 09:09:16;;;;;;;22.73;13.50;;;5.90;99.90;;;;;;5095291;27;20049;-83
2022/03/10 09:11:42;;;;;;;22.80;13.53;;;6.00;99.90;;;;;;5106355;28;20046;-83
2022/03/10 09:14:08;;;;;;;21.17;13.90;;;6.10;99.50;;;;;;5107098;27;20111;-83
2022/03/10 09:16:33;;;;;;;22.80;13.37;;;6.20;98.90;;;;;;5081217;28;20044;-79
2022/03/10 09:19:00;;;;;;;21.17;13.63;;;6.40;99.00;;;;;;5115026;27;20124;-82
2022/03/10 09:21:26;;;;;;;20.37;14.00;;;6.40;98.00;;;;;;5089761;27;20523;-82
2022/03/10 09:23:53;;;;;;;22.10;13.50;;;6.50;97.30;;;;;;5101975;28;20047;-78
2022/03/10 09:26:18;;;;;;;20.80;13.07;;;6.60;96.80;;;;;;5123131;27;20051;-81
2022/03/10 09:28:45;;;;;;;24.23;13.90;;;6.80;96.30;;;;;;5082713;28;20028;-82
2022/03/10 09:31:12;;;;;;;26.30;14.47;;;6.90;95.50;;;;;;5096219;28;20047;-82
2022/03/10 09:33:39;;;;;;;24.20;14.63;;;7.00;95.30;;;;;;5091882;28;20399;-81
2022/03/10 09:36:05;;;;;;;20.33;13.77;;;7.10;94.40;;;;;;5101067;28;20043;-81
2022/03/10 09:38:31;;;;;;;23.60;13.93;;;7.20;94.30;;;;;;5088003;27;20031;-82
2022/03/10 09:40:57;;;;;;;22.50;13.90;;;7.30;94.30;;;;;;5103844;27;20040;-81
2022/03/10 09:43:27;;;;;;;23.57;14.80;;;7.40;93.70;;;;;;5105435;27;20051;-81
2022/03/10 09:45:53;;;;;;;22.67;13.03;;;7.60;93.00;;;;;;5089926;28;20055;-80
2022/03/10 09:48:19;;;;;;;19.33;13.67;;;7.70;92.70;;;;;;5105240;27;20027;-82
2022/03/10 09:50:49;;;;;;;17.63;11.70;;;7.80;91.70;;;;;;5104577;27;20050;-81
2022/03/10 09:53:15;;;;;;;21.93;13.63;;;8.00;92.00;;;;;;5121462;27;20062;-81
2022/03/10 09:55:41;;;;;;;19.87;12.37;;;8.10;91.20;;;;;;5116996;27;20063;-81
2022/03/10 09:58:08;;;;;;;20.50;13.63;;;8.30;91.40;;;;;;5081658;28;20083;-80
2022/03/10 10:00:34;;;;;;;22.90;13.33;;;8.40;90.20;;;;;;5125277;27;20066;-80
2022/03/10 10:03:00;;;;;;;18.47;12.43;;;8.60;90.20;;;;;;5082950;27;20040;-82
2022/03/10 10:05:28;;;;;;;19.80;12.83;;;8.70;89.70;;;;;;5097764;28;20215;-81
2022/03/10 10:08:17;;;;;;;21.37;14.20;;;8.90;89.10;;;;;;5105688;27;20039;-81
2022/03/10 10:10:45;;;;;;;23.80;13.97;;;9.10;85.70;;;;;;5088045;28;20047;-82
2022/03/10 10:13:27;;;;;;;20.77;12.60;;;9.10;85.60;;;;;;5105664;28;20050;-82
2022/03/10 10:16:06;;;;;;;20.43;13.00;;;9.20;82.70;;;;;;5117263;27;20579;-81
2022/03/10 10:18:33;;;;;;;19.27;13.63;;;9.30;83.70;;;;;;5114377;27;20039;-81
2022/03/10 10:20:59;;;;;;;23.87;13.97;;;9.40;83.10;;;;;;5088696;28;20115;-81
2022/03/10 10:23:31;;;;;;;22.80;14.07;;;9.50;82.60;;;;;;5099714;27;20052;-81
2022/03/10 10:25:59;;;;;;;;;;;9.60;81.20;;;;;;5111275;28;20127;-87
2022/03/10 10:28:27;;;;;;;22.93;13.30;;;9.70;73.40;;;;;;5115797;27;19997;-81
2022/03/10 10:30:58;;;;;;;18.87;12.63;;;9.80;80.00;;;;;;5108292;27;20102;-81
2022/03/10 10:33:24;;;;;;;20.23;13.50;;;9.90;78.10;;;;;;5105960;27;20045;-82
2022/03/10 10:35:51;;;;;;;20.80;13.20;;;10.00;77.50;;;;;;5105322;27;20735;-81
2022/03/10 10:38:30;;;;;;;20.77;13.23;;;10.10;77.30;;;;;;5116973;27;20115;-81
2022/03/10 10:41:15;;;;;;;19.90;13.03;;;10.20;74.70;;;;;;5120917;27;20040;-81
2022/03/10 10:43:43;;;;;;;18.07;12.97;;;10.30;74.00;;;;;;5122453;27;20571;-80
2022/03/10 10:46:20;;;;;;;20.83;13.13;;;10.40;75.40;;;;;;5092002;27;20058;-81
2022/03/10 10:48:47;;;;;;;21.37;12.97;;;10.60;74.00;;;;;;5138864;27;20043;-81
2022/03/10 10:51:13;;;;;;;18.77;12.87;;;10.70;72.70;;;;;;5137585;27;20039;-81
2022/03/10 10:53:40;;;;;;;20.57;12.73;;;10.80;71.90;;;;;;5138739;27;20076;-81
2022/03/10 10:56:06;;;;;;;19.87;12.90;;;10.90;72.50;;;;;;5113434;27;20045;-81
2022/03/10 10:58:32;;;;;;;19.37;12.70;;;11.10;71.20;;;;;;5113952;27;20519;-81
2022/03/10 11:00:58;;;;;;;18.37;13.30;;;11.20;70.90;;;;;;5092327;27;20035;-81
2022/03/10 11:03:36;;;;;;;19.27;13.33;;;11.30;70.50;;;;;;5080831;27;20054;-81
2022/03/10 11:06:02;;;;;;;18.43;12.37;;;11.40;69.10;;;;;;5121910;27;20050;-81
2022/03/10 11:08:30;;;;;;;19.03;12.30;;;11.50;69.70;;;;;;5123336;27;20038;-81
2022/03/10 11:10:56;;;;;;;20.53;12.87;;;11.60;68.90;;;;;;5092203;27;20081;-81
2022/03/10 11:13:23;;;;;;;20.13;13.47;;;11.70;68.20;;;;;;5096033;27;20066;-82
2022/03/10 11:15:51;;;;;;;19.70;13.33;;;11.70;67.80;;;;;;5114641;27;20111;-82
2022/03/10 11:18:22;;;;;;;20.20;13.63;;;11.80;67.10;;;;;;5122158;27;20501;-83
2022/03/10 11:20:50;;;;;;;19.30;12.73;;;11.90;66.30;;;;;;5118667;27;20039;-80
2022/03/10 11:23:41;;;;;;;19.73;13.33;;;12.00;66.80;;;;;;5114905;27;21091;-81
2022/03/10 11:26:22;;;;;;;24.67;13.73;;;12.10;65.30;;;;;;5109514;27;20134;-81
2022/03/10 11:28:50;;;;;;;19.77;13.27;;;12.20;65.00;;;;;;5115032;27;20925;-81
2022/03/10 11:31:17;;;;;;;21.57;12.90;;;12.30;64.50;;;;;;5121246;27;20123;-80
2022/03/10 11:33:43;;;;;;;20.57;13.27;;;12.40;64.10;;;;;;5138428;27;20103;-80
2022/03/10 11:36:21;;;;;;;19.43;12.80;;;12.50;63.50;;;;;;5137593;27;20045;-81
2022/03/10 11:39:10;;;;;;;18.07;12.30;;;12.60;63.00;;;;;;5114723;27;20047;-81
2022/03/10 11:41:44;;;;;;;20.97;13.57;;;12.70;62.30;;;;;;5099469;27;20047;-81
2022/03/10 11:44:10;;;;;;;20.13;13.33;;;12.80;61.90;;;;;;5079490;27;20051;-81
2022/03/10 11:46:54;;;;;;;20.07;12.80;;;12.80;61.40;;;;;;5135296;27;20057;-81
2022/03/10 11:49:19;;;;;;;22.97;13.57;;;12.90;59.60;;;;;;5102413;27;20043;-81
2022/03/10 11:51:56;;;;;;;19.27;13.43;;;13.00;60.10;;;;;;5095710;27;20084;-81
2022/03/10 11:54:32;;;;;;;20.00;13.57;;;13.10;59.50;;;;;;5128085;27;20049;-80
2022/03/10 11:57:06;;;;;;;19.77;12.97;;;13.10;57.80;;;;;;5118033;27;20151;-82
2022/03/10 11:59:32;;;;;;;19.10;14.03;;;13.20;60.00;;;;;;5117657;27;20413;-82
2022/03/10 12:01:59;;;;;;;21.60;13.97;;;13.20;58.80;;;;;;5116452;27;20053;-81
2022/03/10 12:04:37;;;;;;;20.23;13.73;;;13.30;59.30;;;;;;5127733;27;20050;-83
2022/03/10 12:07:05;;;;;;;21.73;13.90;;;13.30;58.40;;;;;;5137082;27;20122;-80
2022/03/10 12:09:33;;;;;;;21.07;13.73;;;13.50;58.60;;;;;;5116982;27;20045;-80
2022/03/10 12:12:17;;;;;;;23.80;14.97;;;13.50;58.20;;;;;;5118083;27;20075;-80
2022/03/10 12:14:45;;;;;;;21.17;14.20;;;13.50;55.10;;;;;;5114400;27;20074;-80
2022/03/10 12:17:42;;;;;;;22.43;14.30;;;13.60;56.80;;;;;;5094963;27;20602;-80
2022/03/10 12:20:25;;;;;;;21.93;13.23;;;13.50;54.60;;;;;;5114248;27;20046;-80
2022/03/10 12:23:03;;;;;;;21.53;15.33;;;13.60;56.00;;;;;;5136313;27;20041;-80
2022/03/10 12:25:30;;;;;;;20.80;13.57;;;13.70;55.00;;;;;;5131639;27;20057;-78
2022/03/10 12:27:57;;;;;;;23.20;14.37;;;13.70;55.80;;;;;;5097288;27;20043;-78
2022/03/10 12:30:25;;;;;;;22.07;14.37;;;13.80;56.10;;;;;;5120284;27;20039;-79
2022/03/10 12:32:54;;;;;;;22.13;13.90;;;13.90;55.70;;;;;;5113119;27;20138;-79
2022/03/10 12:35:27;;;;;;;22.33;14.67;;;13.90;56.00;;;;;;5119322;27;20038;-78
2022/03/10 12:37:53;;;;;;;20.17;13.77;;;14.10;55.80;;;;;;5119868;27;20051;-78
2022/03/10 12:40:20;;;;;;;21.80;13.53;;;14.20;55.90;;;;;;5100889;27;20103;-78
2022/03/10 12:42:47;;;;;;;21.27;14.10;;;14.30;55.00;;;;;;5124297;27;20174;-78
2022/03/10 12:45:19;;;;;;;24.87;13.70;;;14.40;55.10;;;;;;5108820;27;20050;-80